New Orleans, Louisiana
Traffic Map
Current Weather Conditions
New Orleans, Louisiana
Broken Clouds
Broken Clouds
29°
Feels Like: 33°
Wind Chill: 29° Ceiling: 11000
Heat Index: 33° Visibility: 10mi
Dew Point: 23° Wind: 5mph
Humidity: 70% Direction: 150° (SSE)
Pressure: 29.99in Gusts: 0mph
Raw Report DataKVSH 280055Z AUTO 15004KT 10SM BKN110 29/23 A2999 RMK AO1
Traffic Incident Summary
Active as of:
Severity:
Category:
InformationThere was an issue retrieving the traffic information for this location. Please try a different location or try again shortly.
Advertisements
Track Severe Weather on mobile